createdAt,value
2018-11-27T00:00:01.328Z,18.28
2018-11-27T00:01:01.435Z,18.28
2018-11-27T00:02:01.396Z,18.27
2018-11-27T00:03:01.842Z,18.27
2018-11-27T00:04:01.201Z,18.28
2018-11-27T00:05:01.706Z,18.27
2018-11-27T00:06:01.592Z,18.26
2018-11-27T00:07:01.294Z,18.26
2018-11-27T00:08:01.327Z,18.26
2018-11-27T00:09:01.293Z,18.26
2018-11-27T00:10:01.495Z,18.26
2018-11-27T00:11:01.231Z,18.26
2018-11-27T00:12:01.425Z,18.25
2018-11-27T00:13:01.740Z,18.25
2018-11-27T00:14:01.758Z,18.25
2018-11-27T00:15:01.553Z,18.25
2018-11-27T00:16:01.447Z,18.25
2018-11-27T00:17:01.775Z,18.25
2018-11-27T00:18:01.333Z,18.26
2018-11-27T00:19:01.737Z,18.25
2018-11-27T00:20:01.327Z,18.24
2018-11-27T00:21:01.294Z,18.24
2018-11-27T00:22:01.190Z,18.23
2018-11-27T00:23:01.321Z,18.23
2018-11-27T00:24:01.456Z,18.22
2018-11-27T00:25:01.224Z,18.23
2018-11-27T00:26:01.681Z,18.23
2018-11-27T00:27:01.262Z,18.23
2018-11-27T00:28:01.708Z,18.22
2018-11-27T00:29:02.081Z,18.22
2018-11-27T00:30:01.629Z,18.22
2018-11-27T00:31:01.286Z,18.22
2018-11-27T00:32:01.600Z,18.22
2018-11-27T00:33:01.755Z,18.21
2018-11-27T00:34:01.632Z,18.21
2018-11-27T00:35:01.704Z,18.21
2018-11-27T00:36:01.498Z,18.2
2018-11-27T00:37:01.292Z,18.2
2018-11-27T00:38:01.329Z,18.21
2018-11-27T00:39:01.542Z,18.21
2018-11-27T00:40:01.645Z,18.19
2018-11-27T00:41:01.313Z,18.2
2018-11-27T00:42:01.640Z,18.19
2018-11-27T00:43:01.326Z,18.19
2018-11-27T00:44:01.884Z,18.18
2018-11-27T00:45:01.296Z,18.19
2018-11-27T00:46:01.265Z,18.18
2018-11-27T00:47:01.167Z,18.18
2018-11-27T00:48:01.426Z,18.18
2018-11-27T00:49:01.309Z,18.19
2018-11-27T00:50:01.262Z,18.18
2018-11-27T00:51:01.429Z,18.17
2018-11-27T00:52:01.268Z,18.17
2018-11-27T00:53:01.756Z,18.17
2018-11-27T00:54:01.219Z,18.17
2018-11-27T00:55:01.374Z,18.17
2018-11-27T00:56:01.216Z,18.17
2018-11-27T00:57:01.240Z,18.18
2018-11-27T00:58:01.125Z,18.17
2018-11-27T00:59:01.338Z,18.17
2018-11-27T01:00:01.330Z,18.16
2018-11-27T01:01:01.290Z,18.16
2018-11-27T01:02:01.666Z,18.16
2018-11-27T01:03:01.581Z,18.14
2018-11-27T01:04:01.321Z,18.14
2018-11-27T01:05:01.185Z,18.15
2018-11-27T01:06:01.368Z,18.14
2018-11-27T01:07:01.587Z,18.13
2018-11-27T01:08:01.311Z,18.13
2018-11-27T01:09:01.187Z,18.13
2018-11-27T01:10:01.253Z,18.14
2018-11-27T01:11:01.566Z,18.14
2018-11-27T01:12:01.328Z,18.13
2018-11-27T01:13:01.754Z,18.13
2018-11-27T01:14:01.432Z,18.13
2018-11-27T01:15:01.283Z,18.13
2018-11-27T01:16:02.230Z,18.12
2018-11-27T01:17:01.327Z,18.12
2018-11-27T01:18:01.695Z,18.12
2018-11-27T01:19:01.464Z,18.12
2018-11-27T01:20:01.397Z,18.12
2018-11-27T01:21:01.266Z,18.11
2018-11-27T01:22:01.283Z,18.11
2018-11-27T01:23:01.256Z,18.11
2018-11-27T01:24:01.323Z,18.11
2018-11-27T01:25:01.424Z,18.11
2018-11-27T01:26:02.193Z,18.11
2018-11-27T01:27:01.256Z,18.11
2018-11-27T01:28:01.837Z,18.11
2018-11-27T01:29:01.285Z,18.1
2018-11-27T01:30:01.234Z,18.09
2018-11-27T01:31:01.331Z,18.09
2018-11-27T01:32:01.747Z,18.09
2018-11-27T01:33:01.350Z,18.09
2018-11-27T01:34:01.387Z,18.09
2018-11-27T01:35:01.827Z,18.08
2018-11-27T01:36:01.556Z,18.08
2018-11-27T01:37:01.188Z,18.08
2018-11-27T01:38:01.201Z,18.08
2018-11-27T01:39:01.234Z,18.08
2018-11-27T01:40:01.428Z,18.06
2018-11-27T01:41:01.668Z,18.07
2018-11-27T01:42:01.309Z,18.06
2018-11-27T01:43:01.181Z,18.07
2018-11-27T01:44:01.241Z,18.07
2018-11-27T01:45:02.226Z,18.06
2018-11-27T01:46:01.286Z,18.07
2018-11-27T01:47:01.240Z,18.06
2018-11-27T01:48:01.415Z,18.06
2018-11-27T01:49:01.327Z,18.06
2018-11-27T01:50:01.306Z,18.06
2018-11-27T01:51:01.257Z,18.06
2018-11-27T01:52:01.567Z,18.06
2018-11-27T01:53:01.573Z,18.06
2018-11-27T01:54:01.363Z,18.06
2018-11-27T01:55:01.222Z,18.05
2018-11-27T01:56:01.216Z,18.04
2018-11-27T01:57:01.198Z,18.05
2018-11-27T01:58:01.283Z,18.04
2018-11-27T01:59:01.308Z,18.04
2018-11-27T02:00:01.665Z,18.04
2018-11-27T02:01:01.490Z,18.04
2018-11-27T02:02:01.266Z,18.03
2018-11-27T02:03:02.039Z,18.04
2018-11-27T02:04:01.343Z,18.04
2018-11-27T02:05:01.702Z,18.03
2018-11-27T02:06:01.608Z,18.03
2018-11-27T02:07:01.056Z,18.03
2018-11-27T02:08:01.454Z,18.03
2018-11-27T02:09:01.652Z,18.02
2018-11-27T02:10:01.197Z,18.02
2018-11-27T02:11:01.409Z,18.03
2018-11-27T02:12:01.628Z,18.02
2018-11-27T02:13:01.686Z,18.01
2018-11-27T02:14:01.747Z,18.01
2018-11-27T02:15:01.406Z,18.01
2018-11-27T02:16:01.413Z,18.01
2018-11-27T02:17:01.263Z,18.01
2018-11-27T02:18:01.187Z,18.02
2018-11-27T02:19:01.426Z,18.01
2018-11-27T02:20:01.286Z,18
2018-11-27T02:21:01.432Z,18
2018-11-27T02:22:01.408Z,18.01
2018-11-27T02:23:01.294Z,18
2018-11-27T02:24:01.225Z,18
2018-11-27T02:25:01.630Z,18.01
2018-11-27T02:26:01.237Z,18.02
2018-11-27T02:27:01.224Z,18
2018-11-27T02:28:01.343Z,18
2018-11-27T02:29:01.359Z,18
2018-11-27T02:30:01.476Z,18
2018-11-27T02:31:01.333Z,17.99
2018-11-27T02:32:01.303Z,17.99
2018-11-27T02:33:01.278Z,17.98
2018-11-27T02:34:01.336Z,17.98
2018-11-27T02:35:01.115Z,17.97
2018-11-27T02:36:01.236Z,17.98
2018-11-27T02:37:01.631Z,17.98
2018-11-27T02:38:01.251Z,17.97
2018-11-27T02:39:01.333Z,17.97
2018-11-27T02:40:01.223Z,17.97
2018-11-27T02:41:01.889Z,17.97
2018-11-27T02:42:01.395Z,17.98
2018-11-27T02:43:01.747Z,17.98
2018-11-27T02:44:01.183Z,17.97
2018-11-27T02:45:01.232Z,17.96
2018-11-27T02:46:01.078Z,17.97
2018-11-27T02:47:01.270Z,17.97
2018-11-27T02:48:01.424Z,17.97
2018-11-27T02:49:01.526Z,17.98
2018-11-27T02:50:01.418Z,17.96
2018-11-27T02:51:02.063Z,17.97
2018-11-27T02:52:01.670Z,17.97
2018-11-27T02:53:01.158Z,17.97
2018-11-27T02:54:01.401Z,17.96
2018-11-27T02:55:01.635Z,17.96
2018-11-27T02:56:01.584Z,17.96
2018-11-27T02:57:01.674Z,17.95
2018-11-27T02:58:01.407Z,17.96
2018-11-27T02:59:01.311Z,17.96
2018-11-27T03:00:01.233Z,17.96
2018-11-27T03:01:01.435Z,17.96
2018-11-27T03:02:01.122Z,17.96
2018-11-27T03:03:01.279Z,17.95
2018-11-27T03:04:01.811Z,17.95
2018-11-27T03:05:01.412Z,17.96
2018-11-27T03:06:01.285Z,17.95
2018-11-27T03:07:01.298Z,17.95
2018-11-27T03:08:02.280Z,17.95
2018-11-27T03:09:01.134Z,17.94
2018-11-27T03:10:01.692Z,17.94
2018-11-27T03:11:01.125Z,17.94
2018-11-27T03:12:01.473Z,17.94
2018-11-27T03:13:01.417Z,17.94
2018-11-27T03:14:01.630Z,17.93
2018-11-27T03:15:01.630Z,17.94
2018-11-27T03:16:01.497Z,17.94
2018-11-27T03:17:01.320Z,17.94
2018-11-27T03:18:01.475Z,17.93
2018-11-27T03:19:01.626Z,17.93
2018-11-27T03:20:01.185Z,17.93
2018-11-27T03:21:01.287Z,17.93
2018-11-27T03:22:01.420Z,17.93
2018-11-27T03:23:01.180Z,17.92
2018-11-27T03:24:01.582Z,17.93
2018-11-27T03:25:01.131Z,17.94
2018-11-27T03:26:01.662Z,17.92
2018-11-27T03:27:01.310Z,17.92
2018-11-27T03:28:01.580Z,17.93
2018-11-27T03:29:01.142Z,17.92
2018-11-27T03:30:01.268Z,17.92
2018-11-27T03:31:01.287Z,17.92
2018-11-27T03:32:01.382Z,17.91
2018-11-27T03:33:01.406Z,17.92
2018-11-27T03:34:01.563Z,17.92
2018-11-27T03:35:01.313Z,17.92
2018-11-27T03:36:01.119Z,17.92
2018-11-27T03:37:01.391Z,17.92
2018-11-27T03:38:01.193Z,17.92
2018-11-27T03:39:01.295Z,17.92
2018-11-27T03:40:01.199Z,17.92
2018-11-27T03:41:01.219Z,17.9
2018-11-27T03:42:01.685Z,17.91
2018-11-27T03:43:01.397Z,17.92
2018-11-27T03:44:01.322Z,17.91
2018-11-27T03:45:01.185Z,17.9
2018-11-27T03:46:01.604Z,17.9
2018-11-27T03:47:01.187Z,17.9
2018-11-27T03:48:01.760Z,17.9
2018-11-27T03:49:01.307Z,17.9
2018-11-27T03:50:01.210Z,17.9
2018-11-27T03:51:01.744Z,17.91
2018-11-27T03:52:01.144Z,17.92
2018-11-27T03:53:01.279Z,17.9
2018-11-27T03:54:01.126Z,17.91
2018-11-27T03:55:01.235Z,17.9
2018-11-27T03:56:01.176Z,17.9
2018-11-27T03:57:01.187Z,17.89
2018-11-27T03:58:01.625Z,17.89
2018-11-27T03:59:01.325Z,17.89
2018-11-27T04:00:01.390Z,17.88
2018-11-27T04:01:01.101Z,17.88
2018-11-27T04:02:01.267Z,17.88
2018-11-27T04:03:01.336Z,17.88
2018-11-27T04:04:01.149Z,17.87
2018-11-27T04:05:01.332Z,17.89
2018-11-27T04:06:01.284Z,17.88
2018-11-27T04:07:01.244Z,17.88
2018-11-27T04:08:01.193Z,17.88
2018-11-27T04:09:01.286Z,17.88
2018-11-27T04:10:01.102Z,17.88
2018-11-27T04:11:01.170Z,17.87
2018-11-27T04:12:01.035Z,17.87
2018-11-27T04:13:01.265Z,17.88
2018-11-27T04:14:01.308Z,17.87
2018-11-27T04:15:01.275Z,17.88
2018-11-27T04:16:01.410Z,17.86
2018-11-27T04:17:01.772Z,17.86
2018-11-27T04:18:01.132Z,17.87
2018-11-27T04:19:01.057Z,17.87
2018-11-27T04:20:01.709Z,17.86
2018-11-27T04:21:01.439Z,17.85
2018-11-27T04:22:01.544Z,17.87
2018-11-27T04:23:01.377Z,17.86
2018-11-27T04:24:01.329Z,17.86
2018-11-27T04:25:01.381Z,17.86
2018-11-27T04:26:01.452Z,17.85
2018-11-27T04:27:02.013Z,17.85
2018-11-27T04:28:01.588Z,17.83
2018-11-27T04:29:01.526Z,17.87
2018-11-27T04:30:01.273Z,17.86
2018-11-27T04:31:01.414Z,17.85
2018-11-27T04:32:01.302Z,17.86
2018-11-27T04:33:01.254Z,17.86
2018-11-27T04:34:01.304Z,17.86
2018-11-27T04:35:01.552Z,17.86
2018-11-27T04:36:01.079Z,17.86
2018-11-27T04:37:01.076Z,17.85
2018-11-27T04:38:01.437Z,17.86
2018-11-27T04:39:01.596Z,17.86
2018-11-27T04:40:01.307Z,17.86
2018-11-27T04:41:01.128Z,17.87
2018-11-27T04:42:01.227Z,17.88
2018-11-27T04:43:01.221Z,17.87
2018-11-27T04:44:01.397Z,17.88
2018-11-27T04:45:01.362Z,17.88
2018-11-27T04:46:01.334Z,17.89
2018-11-27T04:47:01.680Z,17.89
2018-11-27T04:48:01.663Z,17.89
2018-11-27T04:49:01.628Z,17.9
2018-11-27T04:50:01.120Z,17.91
2018-11-27T04:51:01.153Z,17.91
2018-11-27T04:52:01.647Z,17.93
2018-11-27T04:53:01.507Z,17.93
2018-11-27T04:54:01.848Z,17.95
2018-11-27T04:55:01.172Z,17.95
2018-11-27T04:56:01.689Z,17.96
2018-11-27T04:57:01.427Z,17.98
2018-11-27T04:58:01.631Z,17.98
2018-11-27T04:59:01.099Z,18
2018-11-27T05:00:01.301Z,18
2018-11-27T05:01:01.582Z,18.03
2018-11-27T05:02:01.247Z,18.04
2018-11-27T05:03:02.136Z,18.05
2018-11-27T05:04:01.131Z,18.06
2018-11-27T05:05:01.283Z,18.07
2018-11-27T05:06:00.970Z,18.1
2018-11-27T05:07:01.707Z,18.11
2018-11-27T05:08:01.245Z,18.13
2018-11-27T05:09:01.519Z,18.14
2018-11-27T05:10:01.309Z,18.16
2018-11-27T05:11:01.144Z,18.17
2018-11-27T05:12:01.272Z,18.19
2018-11-27T05:13:01.228Z,18.2
2018-11-27T05:14:01.557Z,18.23
2018-11-27T05:15:01.662Z,18.24
2018-11-27T05:16:01.196Z,18.25
2018-11-27T05:17:01.163Z,18.27
2018-11-27T05:18:01.673Z,18.29
2018-11-27T05:19:01.686Z,18.31
2018-11-27T05:20:01.730Z,18.32
2018-11-27T05:21:02.242Z,18.33
2018-11-27T05:22:01.628Z,18.35
2018-11-27T05:23:01.547Z,18.36
2018-11-27T05:24:01.677Z,18.37
2018-11-27T05:25:01.266Z,18.39
2018-11-27T05:26:01.193Z,18.39
2018-11-27T05:27:01.478Z,18.41
2018-11-27T05:28:01.337Z,18.43
2018-11-27T05:29:01.583Z,18.43
2018-11-27T05:30:01.353Z,18.44
2018-11-27T05:31:01.172Z,18.46
2018-11-27T05:32:01.292Z,18.46
2018-11-27T05:33:01.215Z,18.47
2018-11-27T05:34:01.469Z,18.48
2018-11-27T05:35:01.105Z,18.49
2018-11-27T05:36:01.714Z,18.5
2018-11-27T05:37:01.306Z,18.51
2018-11-27T05:38:01.214Z,18.52
2018-11-27T05:39:01.321Z,18.53
2018-11-27T05:40:01.385Z,18.52
2018-11-27T05:41:01.175Z,18.53
2018-11-27T05:42:01.089Z,18.54
2018-11-27T05:43:01.514Z,18.54
2018-11-27T05:44:01.196Z,18.55
2018-11-27T05:45:01.069Z,18.55
2018-11-27T05:46:01.470Z,18.56
2018-11-27T05:47:01.178Z,18.57
2018-11-27T05:48:01.241Z,18.57
2018-11-27T05:49:01.179Z,18.58
2018-11-27T05:50:01.203Z,18.57
2018-11-27T05:51:01.103Z,18.58
2018-11-27T05:52:01.814Z,18.58
2018-11-27T05:53:01.070Z,18.57
2018-11-27T05:54:01.517Z,18.58
2018-11-27T05:55:01.347Z,18.58
2018-11-27T05:56:01.140Z,18.59
2018-11-27T05:57:01.338Z,18.58
2018-11-27T05:58:01.441Z,18.59
2018-11-27T05:59:01.494Z,18.59
2018-11-27T06:00:01.513Z,18.59
2018-11-27T06:01:01.782Z,18.59
2018-11-27T06:02:01.352Z,18.59
2018-11-27T06:03:01.634Z,18.59
2018-11-27T06:04:01.342Z,18.6
2018-11-27T06:05:01.581Z,18.59
2018-11-27T06:06:01.296Z,18.59
2018-11-27T06:07:01.448Z,18.59
2018-11-27T06:08:01.377Z,18.59
2018-11-27T06:09:01.602Z,18.59
2018-11-27T06:10:01.420Z,18.59
2018-11-27T06:11:01.308Z,18.59
2018-11-27T06:12:01.249Z,18.58
2018-11-27T06:13:01.367Z,18.58
2018-11-27T06:14:01.360Z,18.58
2018-11-27T06:15:01.175Z,18.58
2018-11-27T06:16:02.298Z,18.58
2018-11-27T06:17:01.280Z,18.58
2018-11-27T06:18:01.124Z,18.58
2018-11-27T06:19:01.276Z,18.57
2018-11-27T06:20:01.299Z,18.58
2018-11-27T06:21:01.067Z,18.57
2018-11-27T06:22:01.250Z,18.57
2018-11-27T06:23:01.333Z,18.57
2018-11-27T06:24:01.251Z,18.57
2018-11-27T06:25:00.972Z,18.57
2018-11-27T06:26:01.211Z,18.56
2018-11-27T06:27:01.321Z,18.57
2018-11-27T06:28:01.075Z,18.56
2018-11-27T06:29:01.240Z,18.56
2018-11-27T06:30:01.337Z,18.56
2018-11-27T06:31:01.290Z,18.56
2018-11-27T06:32:01.457Z,18.56
2018-11-27T06:33:01.647Z,18.55
2018-11-27T06:34:01.500Z,18.56
2018-11-27T06:35:01.279Z,18.55
2018-11-27T06:36:01.583Z,18.56
2018-11-27T06:37:01.307Z,18.56
2018-11-27T06:38:01.310Z,18.55
2018-11-27T06:39:01.188Z,18.55
2018-11-27T06:40:01.300Z,18.54
2018-11-27T06:41:01.048Z,18.54
2018-11-27T06:42:01.724Z,18.54
2018-11-27T06:43:00.977Z,18.54
2018-11-27T06:44:01.418Z,18.53
2018-11-27T06:45:01.701Z,18.53
2018-11-27T06:46:01.036Z,18.54
2018-11-27T06:47:01.276Z,18.53
2018-11-27T06:48:01.142Z,18.53
2018-11-27T06:49:01.253Z,18.53
2018-11-27T06:50:01.097Z,18.52
2018-11-27T06:51:01.227Z,18.53
2018-11-27T06:52:01.002Z,18.52
2018-11-27T06:53:01.164Z,18.52
2018-11-27T06:54:01.475Z,18.52
2018-11-27T06:55:01.341Z,18.52
2018-11-27T06:56:01.646Z,18.52
2018-11-27T06:57:01.359Z,18.52
2018-11-27T06:58:01.439Z,18.51
2018-11-27T06:59:01.487Z,18.51
2018-11-27T07:00:01.379Z,18.52
2018-11-27T07:01:01.330Z,18.52
2018-11-27T07:02:01.074Z,18.51
2018-11-27T07:03:01.703Z,18.51
2018-11-27T07:04:01.267Z,18.51
2018-11-27T07:05:01.365Z,18.51
2018-11-27T07:06:01.055Z,18.51
2018-11-27T07:07:01.150Z,18.5
2018-11-27T07:08:01.641Z,18.5
2018-11-27T07:09:01.196Z,18.5
2018-11-27T07:10:01.271Z,18.49
2018-11-27T07:11:01.494Z,18.49
2018-11-27T07:12:01.070Z,18.49
2018-11-27T07:13:01.594Z,18.5
2018-11-27T07:14:01.387Z,18.48
2018-11-27T07:15:01.153Z,18.5
2018-11-27T07:16:01.148Z,18.49
2018-11-27T07:17:01.219Z,18.5
2018-11-27T07:18:01.078Z,18.49
2018-11-27T07:19:01.241Z,18.49
2018-11-27T07:20:01.123Z,18.49
2018-11-27T07:21:01.081Z,18.48
2018-11-27T07:22:01.134Z,18.49
2018-11-27T07:23:01.204Z,18.49
2018-11-27T07:24:01.177Z,18.48
2018-11-27T07:25:01.255Z,18.48
2018-11-27T07:26:01.227Z,18.47
2018-11-27T07:27:00.999Z,18.5
2018-11-27T07:28:01.073Z,18.49
2018-11-27T07:29:01.074Z,18.49
2018-11-27T07:30:01.469Z,18.49
2018-11-27T07:31:02.137Z,18.51
2018-11-27T07:32:01.319Z,18.52
2018-11-27T07:33:01.433Z,18.53
2018-11-27T07:34:01.290Z,18.54
2018-11-27T07:35:01.754Z,18.53
2018-11-27T07:36:01.347Z,18.56
2018-11-27T07:37:01.427Z,18.56
2018-11-27T07:38:02.189Z,18.55
2018-11-27T07:39:01.202Z,18.56
2018-11-27T07:40:03.328Z,18.57
2018-11-27T07:41:01.065Z,18.57
2018-11-27T07:42:01.120Z,18.57
2018-11-27T07:43:01.160Z,18.57
2018-11-27T07:44:01.354Z,18.57
2018-11-27T07:45:01.816Z,18.57
2018-11-27T07:46:01.402Z,18.58
2018-11-27T07:47:01.505Z,18.58
2018-11-27T07:48:01.741Z,18.59
2018-11-27T07:49:01.824Z,18.6
2018-11-27T07:50:01.197Z,18.6
2018-11-27T07:51:01.452Z,18.61
2018-11-27T07:52:01.336Z,18.62
2018-11-27T07:53:01.227Z,18.62
2018-11-27T07:54:01.222Z,18.63
2018-11-27T07:55:01.175Z,18.65
2018-11-27T07:56:01.703Z,18.65
2018-11-27T07:57:01.099Z,18.66
2018-11-27T07:58:01.329Z,18.67
2018-11-27T07:59:01.238Z,18.67
2018-11-27T08:00:01.111Z,18.68
2018-11-27T08:01:01.883Z,18.69
2018-11-27T08:02:01.299Z,18.7
2018-11-27T08:03:00.952Z,18.7
2018-11-27T08:04:01.328Z,18.71
2018-11-27T08:05:01.217Z,18.72
2018-11-27T08:06:01.228Z,18.72
2018-11-27T08:07:01.745Z,18.73
2018-11-27T08:08:01.017Z,18.73
2018-11-27T08:09:01.145Z,18.74
2018-11-27T08:10:01.573Z,18.75
2018-11-27T08:11:01.184Z,18.74
2018-11-27T08:12:01.074Z,18.74
2018-11-27T08:13:01.146Z,18.76
2018-11-27T08:14:01.274Z,18.75
2018-11-27T08:15:01.085Z,18.75
2018-11-27T08:16:01.194Z,18.76
2018-11-27T08:17:01.336Z,18.77
2018-11-27T08:18:01.258Z,18.78
2018-11-27T08:19:01.310Z,18.78
2018-11-27T08:20:01.559Z,18.78
2018-11-27T08:21:01.254Z,18.78
2018-11-27T08:22:01.578Z,18.78
2018-11-27T08:23:01.277Z,18.79
2018-11-27T08:24:01.382Z,18.8
2018-11-27T08:25:00.974Z,18.8
2018-11-27T08:26:01.099Z,18.8
2018-11-27T08:27:01.203Z,18.8
2018-11-27T08:28:01.680Z,18.81
2018-11-27T08:29:01.414Z,18.8
2018-11-27T08:30:01.206Z,18.8
2018-11-27T08:31:01.073Z,18.8
2018-11-27T08:32:01.336Z,18.81
2018-11-27T08:33:01.346Z,18.8
2018-11-27T08:34:01.593Z,18.8
2018-11-27T08:35:01.559Z,18.8
2018-11-27T08:36:01.654Z,18.81
2018-11-27T08:37:01.148Z,18.8
2018-11-27T08:38:01.341Z,18.8
2018-11-27T08:39:01.494Z,18.81
2018-11-27T08:40:01.289Z,18.81
2018-11-27T08:41:01.231Z,18.81
2018-11-27T08:42:01.290Z,18.81
2018-11-27T08:43:01.061Z,18.81
2018-11-27T08:44:01.196Z,18.83
2018-11-27T08:45:01.205Z,18.83
2018-11-27T08:46:01.274Z,18.83
2018-11-27T08:47:01.086Z,18.82
2018-11-27T08:48:01.514Z,18.82
2018-11-27T08:49:01.014Z,18.82
2018-11-27T08:50:01.147Z,18.81
2018-11-27T08:51:01.089Z,18.81
2018-11-27T08:52:01.089Z,18.81
2018-11-27T08:53:01.239Z,18.82
2018-11-27T08:54:01.019Z,18.82
2018-11-27T08:55:02.037Z,18.82
2018-11-27T08:56:01.240Z,18.81
2018-11-27T08:57:01.321Z,18.8
2018-11-27T08:58:01.088Z,18.8
2018-11-27T08:59:01.088Z,18.79
2018-11-27T09:00:01.193Z,18.78
2018-11-27T09:01:01.129Z,18.77
2018-11-27T09:02:01.206Z,18.77
2018-11-27T09:03:01.029Z,18.77
2018-11-27T09:04:01.196Z,18.77
2018-11-27T09:05:01.070Z,18.76
2018-11-27T09:06:01.055Z,18.76
2018-11-27T09:07:01.256Z,18.75
2018-11-27T09:08:01.067Z,18.75
2018-11-27T09:09:01.261Z,18.75
2018-11-27T09:10:01.357Z,18.74
2018-11-27T09:11:01.436Z,18.74
2018-11-27T09:12:01.011Z,18.74
2018-11-27T09:13:01.330Z,18.74
2018-11-27T09:14:01.662Z,18.73
2018-11-27T09:15:01.550Z,18.73
2018-11-27T09:16:01.400Z,18.73
2018-11-27T09:17:01.096Z,18.72
2018-11-27T09:18:01.422Z,18.72
2018-11-27T09:19:00.940Z,18.72
2018-11-27T09:20:01.403Z,18.72
2018-11-27T09:21:01.229Z,18.72
2018-11-27T09:22:01.930Z,18.71
2018-11-27T09:23:01.124Z,18.7
2018-11-27T09:24:01.092Z,18.71
2018-11-27T09:25:01.552Z,18.69
2018-11-27T09:26:00.890Z,18.7
2018-11-27T09:27:01.143Z,18.7
2018-11-27T09:28:01.713Z,18.69
2018-11-27T09:29:01.168Z,18.69
2018-11-27T09:30:01.268Z,18.69
2018-11-27T09:31:01.225Z,18.69
2018-11-27T09:32:01.585Z,18.68
2018-11-27T09:33:01.293Z,18.68
2018-11-27T09:34:01.434Z,18.67
2018-11-27T09:35:01.166Z,18.67
2018-11-27T09:36:01.394Z,18.67
2018-11-27T09:37:01.354Z,18.67
2018-11-27T09:38:01.039Z,18.67
2018-11-27T09:39:01.390Z,18.66
2018-11-27T09:40:01.079Z,18.67
2018-11-27T09:41:01.648Z,18.66
2018-11-27T09:42:00.995Z,18.66
2018-11-27T09:43:01.039Z,18.66
2018-11-27T09:44:01.067Z,18.65
2018-11-27T09:45:01.450Z,18.65
2018-11-27T09:46:01.195Z,18.64
2018-11-27T09:47:01.058Z,18.64
2018-11-27T09:48:01.309Z,18.63
2018-11-27T09:49:01.444Z,18.64
2018-11-27T09:50:01.593Z,18.64
2018-11-27T09:51:00.927Z,18.63
2018-11-27T09:52:01.371Z,18.63
2018-11-27T09:53:01.243Z,18.64
2018-11-27T09:54:01.082Z,18.63
2018-11-27T09:55:01.508Z,18.62
2018-11-27T09:56:01.302Z,18.63
2018-11-27T09:57:01.179Z,18.63
2018-11-27T09:58:00.971Z,18.63
2018-11-27T09:59:01.135Z,18.63
2018-11-27T10:00:01.327Z,18.63
2018-11-27T10:01:01.149Z,18.63
2018-11-27T10:02:01.300Z,18.62
2018-11-27T10:03:01.099Z,18.63
2018-11-27T10:04:01.197Z,18.63
2018-11-27T10:05:01.201Z,18.63
2018-11-27T10:06:01.471Z,18.62
2018-11-27T10:07:01.259Z,18.63
2018-11-27T10:08:01.142Z,18.63
2018-11-27T10:09:00.997Z,18.63
2018-11-27T10:10:01.122Z,18.63
2018-11-27T10:11:01.288Z,18.62
2018-11-27T10:12:01.351Z,18.62
2018-11-27T10:13:01.199Z,18.62
2018-11-27T10:14:01.648Z,18.63
2018-11-27T10:15:01.358Z,18.63
2018-11-27T10:16:01.239Z,18.63
2018-11-27T10:17:01.069Z,18.63
2018-11-27T10:18:01.274Z,18.63
2018-11-27T10:19:01.244Z,18.63
2018-11-27T10:20:01.603Z,18.64
2018-11-27T10:21:00.991Z,18.63
2018-11-27T10:22:01.177Z,18.63
2018-11-27T10:23:00.996Z,18.64
2018-11-27T10:24:01.046Z,18.63
2018-11-27T10:25:00.893Z,18.64
2018-11-27T10:26:01.120Z,18.64
2018-11-27T10:27:01.361Z,18.64
2018-11-27T10:28:01.310Z,18.63
2018-11-27T10:29:01.103Z,18.64
2018-11-27T10:30:00.995Z,18.64
2018-11-27T10:31:01.149Z,18.64
2018-11-27T10:32:01.011Z,18.64
2018-11-27T10:33:01.292Z,18.64
2018-11-27T10:34:00.982Z,18.65
2018-11-27T10:35:01.330Z,18.65
2018-11-27T10:36:01.101Z,18.65
2018-11-27T10:37:01.011Z,18.65
2018-11-27T10:38:01.191Z,18.65
2018-11-27T10:39:01.128Z,18.65
2018-11-27T10:40:00.919Z,18.65
2018-11-27T10:41:00.939Z,18.66
2018-11-27T10:42:01.233Z,18.66
2018-11-27T10:43:01.145Z,18.66
2018-11-27T10:44:01.058Z,18.66
2018-11-27T10:45:02.307Z,18.66
2018-11-27T10:46:00.957Z,18.66
2018-11-27T10:47:01.072Z,18.65
2018-11-27T10:48:01.284Z,18.67
2018-11-27T10:49:01.051Z,18.65
2018-11-27T10:50:00.918Z,18.66
2018-11-27T10:51:00.991Z,18.66
2018-11-27T10:52:01.720Z,18.66
2018-11-27T10:53:01.733Z,18.66
2018-11-27T10:54:01.278Z,18.66
2018-11-27T10:55:01.325Z,18.66
2018-11-27T10:56:01.350Z,18.66
2018-11-27T10:57:00.955Z,18.66
2018-11-27T10:58:01.435Z,18.66
2018-11-27T10:59:01.250Z,18.66
2018-11-27T11:00:01.743Z,18.66
2018-11-27T11:01:01.094Z,18.66
2018-11-27T11:02:01.077Z,18.67
2018-11-27T11:03:01.062Z,18.67
2018-11-27T11:04:00.896Z,18.66
2018-11-27T11:05:01.085Z,18.66
2018-11-27T11:06:01.203Z,18.66
2018-11-27T11:07:00.972Z,18.66
2018-11-27T11:08:01.438Z,18.67
2018-11-27T11:09:00.911Z,18.67
2018-11-27T11:10:01.283Z,18.67
2018-11-27T11:11:00.970Z,18.67
2018-11-27T11:12:01.357Z,18.67
2018-11-27T11:13:01.257Z,18.67
2018-11-27T11:14:01.384Z,18.67
2018-11-27T11:15:01.463Z,18.67
2018-11-27T11:16:01.271Z,18.68
2018-11-27T11:17:01.200Z,18.68
2018-11-27T11:18:00.986Z,18.69
2018-11-27T11:19:01.757Z,18.69
2018-11-27T11:20:01.413Z,18.71
2018-11-27T11:21:00.976Z,18.7
2018-11-27T11:22:01.370Z,18.7
2018-11-27T11:23:00.962Z,18.7
2018-11-27T11:24:01.019Z,18.69
2018-11-27T11:25:00.871Z,18.7
2018-11-27T11:26:01.101Z,18.7
2018-11-27T11:27:01.099Z,18.71
2018-11-27T11:28:01.236Z,18.7
2018-11-27T11:29:01.222Z,18.71
2018-11-27T11:30:00.988Z,18.71
2018-11-27T11:31:01.124Z,18.7
2018-11-27T11:32:00.883Z,18.7
2018-11-27T11:33:01.041Z,18.7
2018-11-27T11:34:01.300Z,18.71
2018-11-27T11:35:01.416Z,18.7
2018-11-27T11:36:01.203Z,18.69
2018-11-27T11:37:01.323Z,18.69
2018-11-27T11:38:01.568Z,18.69
2018-11-27T11:39:01.209Z,18.69
2018-11-27T11:40:01.188Z,18.7
2018-11-27T11:41:01.152Z,18.7
2018-11-27T11:42:01.460Z,18.69
2018-11-27T11:43:02.000Z,18.68
2018-11-27T11:44:01.083Z,18.7
2018-11-27T11:45:00.836Z,18.68
2018-11-27T11:46:00.974Z,18.69
2018-11-27T11:47:01.348Z,18.69
2018-11-27T11:48:00.936Z,18.69
2018-11-27T11:49:01.936Z,18.68
2018-11-27T11:50:01.119Z,18.68
2018-11-27T11:51:01.728Z,18.68
2018-11-27T11:52:01.208Z,18.67
2018-11-27T11:53:01.306Z,18.67
2018-11-27T11:54:01.540Z,18.67
2018-11-27T11:55:00.896Z,18.67
2018-11-27T11:56:01.250Z,18.67
2018-11-27T11:57:01.266Z,18.68
2018-11-27T11:58:00.980Z,18.67
2018-11-27T11:59:00.885Z,18.67
2018-11-27T12:00:00.996Z,18.67
2018-11-27T12:01:01.169Z,18.67
2018-11-27T12:02:01.029Z,18.68
2018-11-27T12:03:01.102Z,18.67
2018-11-27T12:04:00.995Z,18.66
2018-11-27T12:05:00.870Z,18.66
2018-11-27T12:06:01.013Z,18.67
2018-11-27T12:07:01.110Z,18.66
2018-11-27T12:08:01.057Z,18.66
2018-11-27T12:09:01.045Z,18.66
2018-11-27T12:10:01.152Z,18.65
2018-11-27T12:11:01.053Z,18.66
2018-11-27T12:12:00.971Z,18.65
2018-11-27T12:13:01.014Z,18.65
2018-11-27T12:14:00.943Z,18.66
2018-11-27T12:15:01.407Z,18.66
2018-11-27T12:16:01.155Z,18.65
2018-11-27T12:17:01.300Z,18.65
2018-11-27T12:18:01.067Z,18.65
2018-11-27T12:19:01.008Z,18.64
2018-11-27T12:20:00.994Z,18.64
2018-11-27T12:21:01.059Z,18.64
2018-11-27T12:22:01.216Z,18.64
2018-11-27T12:23:01.232Z,18.64
2018-11-27T12:24:01.209Z,18.65
2018-11-27T12:25:01.047Z,18.65
2018-11-27T12:26:01.484Z,18.64
2018-11-27T12:27:00.987Z,18.64
2018-11-27T12:28:01.177Z,18.64
2018-11-27T12:29:00.986Z,18.64
2018-11-27T12:30:01.087Z,18.64
2018-11-27T12:31:00.868Z,18.63
2018-11-27T12:32:00.907Z,18.64
2018-11-27T12:33:02.147Z,18.64
2018-11-27T12:34:01.060Z,18.63
2018-11-27T12:35:01.182Z,18.64
2018-11-27T12:36:01.324Z,18.63
2018-11-27T12:37:01.025Z,18.64
2018-11-27T12:38:00.873Z,18.63
2018-11-27T12:39:01.254Z,18.64
2018-11-27T12:40:00.910Z,18.63
2018-11-27T12:41:00.890Z,18.63
2018-11-27T12:42:00.996Z,18.63
2018-11-27T12:43:01.160Z,18.63
2018-11-27T12:44:01.120Z,18.62
2018-11-27T12:45:01.199Z,18.63
2018-11-27T12:46:01.076Z,18.63
2018-11-27T12:47:01.279Z,18.62
2018-11-27T12:48:01.342Z,18.62
2018-11-27T12:49:01.306Z,18.62
2018-11-27T12:50:01.229Z,18.62
2018-11-27T12:51:01.158Z,18.63
2018-11-27T12:52:01.219Z,18.63
2018-11-27T12:53:01.153Z,18.62
2018-11-27T12:54:01.287Z,18.62
2018-11-27T12:55:01.285Z,18.62